Pagrindinis puslapis
METAR-TAF:

METAR-TAF

Oro uostai :

San Chosė, Kosta Rika

platuma: 10-00N, ilguma: 084-13W, Aukštis: 920 m

Dabartinis oras

Ataskaita buvo paskelbta 1 valandą ir 2 minutes, ne 12:00 UTC
Vėjas 18 kt iš Rytų su gūsio iki 32 kt
Temperatūra 21°C
Drėgmė 73%
Slėgis 1017 hPa
Matomumas 10 km arba daugiau
nėra debesų žemiau 1500 m ir nėra kamuolinių lietaus debesų

METAR: MROC 281200Z 10018G32KT CAVOK 21/16 A3004 NOSIG

Laikas: 07:02 (13:02 UTC)

Prognozė

Ataskaita buvo paskelbta 2 valandos ir 2 minutes, ne 11:00 UTC
Prognozė galioja nuo 28 metu 12 UTC su 29 metu 12 UTC
Vėjas 15 kt iš Rytų
Matomumas 10 km arba daugiau
Mažai debesys ne aukštis 4000 ft
Laikinai
nuo 28 metu 12 UTC su 29 metu 12 UTC
Vėjas 17 kt iš Rytų su gūsio iki 28 kt

TAF: MROC 281100Z 2812/2912 09015KT 9999 FEW040 TX30/2819Z TN20/2911Z TEMPO 2812/2912 10017G28KT

Orai ataskaitas ir orų prognozės (METAR, TAF).

turimą stotys yra geltonos ir raudonos taškus žemėlapyje.

Perkelti pele per norėdami pamatyti stoties vardą.

Tada spustelėkite, norėdami matyti oro stebėjimo ir prognozės.

Norėdami pakeisti žemėlapį: spustelėkite ant žalios mygtukų su juodo kryžiaus žemyn,; žalią mygtuką su brūkšneliu, jei norite nutolinti; arba žalių rodyklių gretimoms žemėlapius.


METAR-TAF: